Time;durP1;ratioP1;P1;durP2;ratioP2;P2;SDS_P1;SDS_P2;PMS_P1;PMS_P2;Temp;Humidity;BMP_temperature;BMP_pressure;BME280_temperature;BME280_humidity;BME280_pressure;Samples;Min_cycle;Max_cycle;Signal;HPM_P1;HPM_P2
2021/07/30 00:01:21;;;;;;;18.02;16.10;;;24.80;97.30;;;;;;5017782;28;20060;-91
2021/07/30 00:04:23;;;;;;;20.38;17.35;;;24.80;97.30;;;;;;5004059;28;20025;-90
2021/07/30 00:07:06;;;;;;;;;;;;;;;;;;;;;
2021/07/30 00:09:36;;;;;;;18.60;16.60;;;24.80;97.30;;;;;;5035036;28;20034;-90
2021/07/30 00:12:09;;;;;;;19.17;16.15;;;24.80;97.30;;;;;;5033159;28;20037;-90
2021/07/30 00:15:06;;;;;;;18.73;16.73;;;24.80;97.30;;;;;;5018841;28;20127;-90
2021/07/30 00:18:05;;;;;;;;;;;;;;;;;;;;;
2021/07/30 00:20:42;;;;;;;21.20;16.92;;;24.80;97.20;;;;;;5035684;28;20120;-90
2021/07/30 00:23:22;;;;;;;;;;;;;;;;;;;;;
2021/07/30 00:26:03;;;;;;;;;;;;;;;;;;;;;
2021/07/30 00:28:34;;;;;;;19.92;16.50;;;24.80;97.20;;;;;;5035187;28;20029;-90
2021/07/30 00:31:12;;;;;;;;;;;;;;;;;;;;;
2021/07/30 00:33:43;;;;;;;21.02;17.17;;;24.80;97.10;;;;;;5044040;28;20149;-91
2021/07/30 00:36:32;;;;;;;21.58;17.00;;;24.80;97.10;;;;;;5044534;28;20537;-90
2021/07/30 00:39:03;;;;;;;21.15;16.88;;;24.80;97.10;;;;;;5041766;28;20025;-90
2021/07/30 00:41:39;;;;;;;20.75;17.23;;;24.80;97.10;;;;;;5016966;28;20030;-90
2021/07/30 00:44:12;;;;;;;20.05;16.75;;;24.80;97.10;;;;;;5032664;28;20514;-90
2021/07/30 00:46:45;;;;;;;21.17;17.05;;;24.80;97.10;;;;;;5032772;28;20037;-90
2021/07/30 00:49:26;;;;;;;21.92;17.88;;;24.80;97.10;;;;;;5022713;28;20048;-90
2021/07/30 00:52:25;;;;;;;;;;;;;;;;;;;;;
2021/07/30 00:55:21;;;;;;;19.60;16.35;;;24.80;97.00;;;;;;5036972;28;20124;-90
2021/07/30 00:58:08;;;;;;;20.92;16.83;;;24.80;97.00;;;;;;5032200;28;20037;-89
2021/07/30 01:00:34;;;;;;;19.27;16.70;;;24.80;97.00;;;;;;5032623;28;20025;-90
2021/07/30 01:03:28;;;;;;;23.65;18.17;;;24.80;97.00;;;;;;5042349;28;20032;-89
2021/07/30 01:06:06;;;;;;;;;;;;;;;;;;;;;
2021/07/30 01:08:38;;;;;;;20.00;16.95;;;24.80;96.90;;;;;;5032538;28;20052;-90
2021/07/30 01:11:06;;;;;;;21.55;17.58;;;24.80;96.90;;;;;;5016827;28;20051;-89
2021/07/30 01:13:49;;;;;;;;;;;;;;;;;;;;;
2021/07/30 01:16:24;;;;;;;22.27;17.98;;;24.80;96.90;;;;;;5033100;28;20025;-89
2021/07/30 01:19:23;;;;;;;21.48;17.42;;;24.70;96.80;;;;;;5031829;28;20029;-90
2021/07/30 01:21:52;;;;;;;21.23;17.13;;;24.80;96.80;;;;;;5032055;28;20124;-89
2021/07/30 01:24:26;;;;;;;20.25;17.42;;;24.80;96.90;;;;;;5034988;28;20065;-90
2021/07/30 01:27:03;;;;;;;19.50;16.50;;;24.80;96.80;;;;;;5033604;28;20033;-91
2021/07/30 01:29:29;;;;;;;18.85;16.80;;;24.80;96.80;;;;;;5053473;28;20080;-90
2021/07/30 01:32:25;;;;;;;20.75;17.30;;;24.80;96.80;;;;;;5046042;28;20063;-90
2021/07/30 01:35:03;;;;;;;;;;;;;;;;;;;;;
2021/07/30 01:37:30;;;;;;;21.30;17.35;;;24.70;96.80;;;;;;5036772;28;20039;-89
2021/07/30 01:40:43;;;;;;;;;;;;;;;;;;;;;
2021/07/30 01:43:31;;;;;;;20.55;17.17;;;24.80;96.80;;;;;;5072609;28;20028;-91
2021/07/30 01:46:08;;;;;;;22.38;17.42;;;24.80;96.70;;;;;;5040600;28;20028;-90
2021/07/30 01:48:54;;;;;;;;;;;;;;;;;;;;;
2021/07/30 01:51:49;;;;;;;20.88;17.75;;;24.70;96.70;;;;;;5041725;28;20486;-90
2021/07/30 01:58:06;;;;;;;22.42;18.02;;;24.70;96.70;;;;;;5062729;28;20483;-91
2021/07/30 02:01:02;;;;;;;23.17;18.38;;;24.70;96.60;;;;;;5055071;28;20102;-91
2021/07/30 02:04:08;;;;;;;22.30;18.48;;;24.70;96.60;;;;;;5054467;28;20040;-91
2021/07/30 02:06:52;;;;;;;23.23;17.75;;;24.70;96.60;;;;;;5043387;28;20519;-91
2021/07/30 02:12:13;;;;;;;22.55;18.83;;;24.70;96.60;;;;;;5045475;28;20041;-91
2021/07/30 02:14:51;;;;;;;;;;;;;;;;;;;;;
2021/07/30 02:17:23;;;;;;;22.55;18.33;;;24.70;96.60;;;;;;5075776;28;20052;-91
2021/07/30 02:26:41;;;;;;;23.10;18.98;;;24.70;96.50;;;;;;5055208;28;20032;-91
2021/07/30 02:29:21;;;;;;;22.60;18.73;;;24.70;96.50;;;;;;5058997;28;20467;-91
2021/07/30 02:32:09;;;;;;;;;;;;;;;;;;;;;
2021/07/30 02:34:51;;;;;;;24.88;19.25;;;24.70;96.50;;;;;;5060911;28;20445;-91
2021/07/30 02:37:22;;;;;;;25.08;20.65;;;24.70;96.50;;;;;;5045468;28;20481;-91
2021/07/30 02:43:23;;;;;;;25.67;20.40;;;24.70;96.50;;;;;;5068736;28;20032;-90
2021/07/30 02:45:49;;;;;;;24.63;20.42;;;24.70;96.40;;;;;;5033611;28;20033;-90
2021/07/30 02:48:48;;;;;;;23.98;19.55;;;24.70;96.40;;;;;;5076843;28;20043;-90
2021/07/30 02:51:14;;;;;;;23.90;20.13;;;24.70;96.40;;;;;;5041886;28;20041;-89
2021/07/30 02:53:47;;;;;;;24.40;20.40;;;24.70;96.40;;;;;;5057654;28;20119;-90
2021/07/30 02:56:26;;;;;;;25.37;20.60;;;24.70;96.40;;;;;;5058865;28;20028;-90
2021/07/30 02:59:22;;;;;;;;;;;;;;;;;;;;;
2021/07/30 03:02:01;;;;;;;25.17;20.45;;;24.70;96.40;;;;;;5076369;28;20036;-91
2021/07/30 03:07:42;;;;;;;26.80;20.92;;;24.70;96.40;;;;;;5059463;28;20025;-91
2021/07/30 03:11:02;;;;;;;;;;;;;;;;;;;;;
2021/07/30 03:13:56;;;;;;;25.90;20.85;;;24.70;96.30;;;;;;5079015;28;20097;-90
2021/07/30 03:19:41;;;;;;;24.52;19.70;;;24.70;96.30;;;;;;5039791;28;20096;-91
2021/07/30 03:22:27;;;;;;;24.63;19.60;;;24.70;96.30;;;;;;5058673;28;20082;-90
2021/07/30 03:25:10;;;;;;;25.20;18.80;;;24.70;96.30;;;;;;5044443;28;20032;-91
2021/07/30 03:27:43;;;;;;;22.83;18.73;;;24.70;96.30;;;;;;5057745;28;20068;-91
2021/07/30 03:30:39;;;;;;;;;;;;;;;;;;;;;
2021/07/30 03:33:21;;;;;;;21.88;18.40;;;24.70;96.30;;;;;;5059991;28;20053;-90
2021/07/30 03:36:13;;;;;;;23.15;18.73;;;24.70;96.30;;;;;;5056677;28;20135;-93
2021/07/30 03:38:46;;;;;;;20.38;17.65;;;24.70;96.30;;;;;;5059922;28;20038;-91
2021/07/30 03:41:36;;;;;;;21.60;17.60;;;24.70;96.30;;;;;;5041093;28;20040;-90
2021/07/30 03:44:10;;;;;;;20.95;17.70;;;24.70;96.30;;;;;;5059583;28;20063;-90
2021/07/30 03:46:42;;;;;;;20.80;17.50;;;24.70;96.20;;;;;;5058728;28;20063;-91
2021/07/30 03:49:18;;;;;;;;;;;;;;;;;;;;;
2021/07/30 03:51:57;;;;;;;;;;;;;;;;;;;;;
2021/07/30 03:57:31;;;;;;;18.88;16.25;;;24.70;96.20;;;;;;5080533;28;20084;-91
2021/07/30 04:00:00;;;;;;;19.10;16.08;;;24.70;96.20;;;;;;5069638;28;20029;-90
2021/07/30 04:02:35;;;;;;;20.60;16.42;;;24.70;96.20;;;;;;5069567;28;20119;-90
2021/07/30 04:05:09;;;;;;;18.77;15.20;;;24.70;96.20;;;;;;5034722;28;20036;-91
2021/07/30 04:07:38;;;;;;;19.63;16.27;;;24.70;96.20;;;;;;5054196;28;20024;-91
2021/07/30 04:10:07;;;;;;;18.33;15.63;;;24.70;96.20;;;;;;5041747;28;20048;-91
2021/07/30 04:15:48;;;;;;;17.15;14.70;;;24.70;96.10;;;;;;5067264;28;20501;-91
2021/07/30 04:18:37;;;;;;;17.88;14.63;;;24.70;96.10;;;;;;5047954;28;20028;-90
2021/07/30 04:21:07;;;;;;;17.90;14.20;;;24.70;96.10;;;;;;5066596;28;20032;-91
2021/07/30 04:23:36;;;;;;;18.30;15.13;;;24.70;96.10;;;;;;5058624;28;20024;-91
2021/07/30 04:26:09;;;;;;;15.93;13.35;;;24.70;96.10;;;;;;5056554;28;20024;-90
2021/07/30 04:28:55;;;;;;;16.65;14.52;;;24.70;96.10;;;;;;5056818;28;20073;-91
2021/07/30 04:31:43;;;;;;;17.38;14.13;;;24.60;96.10;;;;;;5067188;28;20136;-91
2021/07/30 04:34:11;;;;;;;14.98;12.93;;;24.70;96.10;;;;;;5056692;28;20109;-91
2021/07/30 04:36:54;;;;;;;15.82;13.05;;;24.70;96.10;;;;;;5055986;28;20077;-89
2021/07/30 04:42:42;;;;;;;15.85;13.40;;;24.60;96.10;;;;;;5075502;28;20043;-91
2021/07/30 04:45:38;;;;;;;16.40;13.25;;;24.70;96.10;;;;;;5051873;28;20051;-91
2021/07/30 04:48:34;;;;;;;14.60;12.45;;;24.70;96.10;;;;;;5060132;28;20510;-91
2021/07/30 04:51:13;;;;;;;14.80;12.55;;;24.70;96.10;;;;;;5039943;28;20142;-91
2021/07/30 04:53:56;;;;;;;15.82;12.93;;;24.70;96.10;;;;;;5055998;28;20028;-91
2021/07/30 04:56:30;;;;;;;14.88;12.40;;;24.60;96.00;;;;;;5039024;28;20440;-92
2021/07/30 04:59:11;;;;;;;14.53;12.10;;;24.70;96.10;;;;;;5040055;28;20035;-92
2021/07/30 05:02:12;;;;;;;;;;;;;;;;;;;;;
2021/07/30 05:04:50;;;;;;;12.60;11.00;;;24.70;96.30;;;;;;5060727;28;20035;-91
2021/07/30 05:07:25;;;;;;;15.25;11.88;;;24.70;96.40;;;;;;5040099;28;20428;-92
2021/07/30 05:10:12;;;;;;;12.45;10.50;;;24.70;96.50;;;;;;5068074;28;20063;-93
2021/07/30 05:13:04;;;;;;;;;;;;;;;;;;;;;
2021/07/30 05:16:00;;;;;;;;;;;;;;;;;;;;;
2021/07/30 05:18:47;;;;;;;;;;;;;;;;;;;;;
2021/07/30 05:21:42;;;;;;;12.20;9.98;;;24.70;96.60;;;;;;5073287;28;20492;-91
2021/07/30 05:24:38;;;;;;;12.13;10.18;;;24.60;96.20;;;;;;5042354;28;20028;-90
2021/07/30 05:27:32;;;;;;;11.73;9.60;;;24.70;96.20;;;;;;5061437;28;20049;-91
2021/07/30 05:30:31;;;;;;;;;;;;;;;;;;;;;
2021/07/30 05:33:06;;;;;;;11.57;9.35;;;24.60;96.00;;;;;;5073577;28;20082;-90
2021/07/30 05:35:58;;;;;;;12.35;9.60;;;24.60;96.00;;;;;;5055417;28;20036;-90
2021/07/30 05:38:41;;;;;;;9.60;8.13;;;24.60;95.90;;;;;;5039448;28;20029;-91
2021/07/30 05:44:39;;;;;;;;;;;;;;;;;;;;;
2021/07/30 05:47:24;;;;;;;7.88;6.78;;;24.60;95.80;;;;;;5068157;28;20040;-90
2021/07/30 05:50:10;;;;;;;7.28;6.47;;;24.60;95.80;;;;;;5045829;28;20029;-91
2021/07/30 05:53:04;;;;;;;6.35;5.65;;;24.60;95.80;;;;;;5045347;28;20070;-91
2021/07/30 05:55:32;;;;;;;7.35;6.20;;;24.60;95.70;;;;;;5061176;28;20044;-91
2021/07/30 05:58:30;;;;;;;6.47;5.07;;;24.60;95.70;;;;;;5059032;28;20021;-92
2021/07/30 06:01:50;;;;;;;6.45;5.07;;;24.60;95.70;;;;;;5053009;28;20041;-94
2021/07/30 06:04:48;;;;;;;;;;;;;;;;;;;;;
2021/07/30 06:08:20;;;;;;;;;;;;;;;;;;;;;
2021/07/30 06:12:06;;;;;;;;;;;;;;;;;;;;;
2021/07/30 06:15:22;;;;;;;;;;;;;;;;;;;;;
2021/07/30 06:18:42;;;;;;;;;;;;;;;;;;;;;
2021/07/30 07:06:58;;;;;;;;;;;;;;;;;;;;;
2021/07/30 07:13:26;;;;;;;;;;;;;;;;;;;;;
2021/07/30 07:20:29;;;;;;;;;;;;;;;;;;;;;
2021/07/30 07:23:19;;;;;;;;;;;;;;;;;;;;;
2021/07/30 07:26:40;;;;;;;1.45;1.35;;;24.60;96.20;;;;;;4978903;28;20054;-92
2021/07/30 07:33:16;;;;;;;2.10;1.42;;;24.60;96.10;;;;;;5023848;28;20106;-93
2021/07/30 07:36:25;;;;;;;1.20;1.10;;;24.60;96.10;;;;;;5035190;28;20421;-93
2021/07/30 07:43:04;;;;;;;;;;;;;;;;;;;;;
2021/07/30 07:46:10;;;;;;;1.63;1.40;;;24.60;96.00;;;;;;4921974;29;20044;-94
2021/07/30 07:56:24;;;;;;;1.38;1.15;;;24.60;96.20;;;;;;4912684;29;20035;-92
2021/07/30 08:00:09;;;;;;;;;;;;;;;;;;;;;
2021/07/30 08:03:47;;;;;;;;;;;;;;;;;;;;;
2021/07/30 08:10:14;;;;;;;;;;;;;;;;;;;;;
2021/07/30 08:13:43;;;;;;;;;;;;;;;;;;;;;
2021/07/30 08:20:37;;;;;;;1.45;1.23;;;24.60;96.20;;;;;;4934761;28;20078;-92
2021/07/30 08:23:06;;;;;;;1.60;1.50;;;24.60;96.20;;;;;;4976186;28;20042;-91
2021/07/30 08:25:36;;;;;;;2.03;1.58;;;24.60;96.10;;;;;;4977529;28;20413;-91
2021/07/30 08:28:05;;;;;;;1.23;1.13;;;24.60;96.00;;;;;;4976517;28;20042;-91
2021/07/30 08:33:51;;;;;;;1.70;1.40;;;24.60;95.90;;;;;;4950709;28;20134;-92
2021/07/30 08:36:58;;;;;;;1.88;1.40;;;24.60;95.90;;;;;;4976497;28;20105;-92
2021/07/30 08:39:54;;;;;;;;;;;;;;;;;;;;;
2021/07/30 08:42:42;;;;;;;1.20;1.00;;;24.60;95.80;;;;;;4994797;28;20458;-93
2021/07/30 08:46:00;;;;;;;1.23;1.10;;;24.60;95.90;;;;;;5054387;28;20035;-93
2021/07/30 08:48:51;;;;;;;1.65;1.40;;;24.60;95.90;;;;;;5074184;28;20024;-92
2021/07/30 08:51:43;;;;;;;1.30;1.20;;;24.60;95.80;;;;;;5054905;28;20045;-93
2021/07/30 08:58:10;;;;;;;;;;;;;;;;;;;;;
2021/07/30 09:00:43;;;;;;;1.40;1.15;;;24.60;95.70;;;;;;5067645;28;20043;-93
2021/07/30 09:03:29;;;;;;;;;;;;;;;;;;;;;
2021/07/30 09:06:39;;;;;;;1.38;1.05;;;24.60;95.70;;;;;;5060601;28;20088;-92
2021/07/30 09:09:48;;;;;;;1.05;1.00;;;24.60;95.70;;;;;;5078168;28;20029;-92
2021/07/30 09:12:46;;;;;;;1.40;1.27;;;24.60;95.70;;;;;;5073142;28;20079;-92
2021/07/30 09:15:32;;;;;;;1.38;1.15;;;24.60;95.70;;;;;;5079611;28;20028;-92
2021/07/30 09:18:00;;;;;;;0.93;0.93;;;24.60;95.70;;;;;;5044540;28;20043;-92
2021/07/30 09:20:54;;;;;;;1.25;1.15;;;24.60;95.70;;;;;;5041741;28;20100;-95
2021/07/30 09:24:00;;;;;;;0.90;0.90;;;24.70;95.80;;;;;;5041593;28;20474;-93
2021/07/30 09:26:57;;;;;;;1.02;0.93;;;24.70;96.10;;;;;;5046842;28;20032;-92
2021/07/30 09:29:32;;;;;;;1.40;1.00;;;24.70;95.90;;;;;;5067861;28;20107;-92
2021/07/30 09:32:41;;;;;;;;;;;;;;;;;;;;;
2021/07/30 09:35:55;;;;;;;1.20;1.10;;;24.70;96.00;;;;;;5063246;28;20131;-93
2021/07/30 09:38:43;;;;;;;1.48;1.38;;;24.70;96.00;;;;;;5061363;28;20039;-92
2021/07/30 09:41:23;;;;;;;1.52;0.95;;;24.70;96.00;;;;;;5045905;28;20044;-93
2021/07/30 09:44:38;;;;;;;1.30;1.10;;;24.70;96.00;;;;;;5057909;28;20033;-91
2021/07/30 09:47:35;;;;;;;;;;;;;;;;;;;;;
2021/07/30 09:50:29;;;;;;;1.25;1.15;;;24.70;96.00;;;;;;5077037;28;20558;-93
2021/07/30 09:53:21;;;;;;;2.20;1.70;;;24.70;96.00;;;;;;5056913;28;20138;-90
2021/07/30 09:55:50;;;;;;;3.03;1.90;;;24.70;96.10;;;;;;5041552;28;20029;-90
2021/07/30 09:58:46;;;;;;;2.63;2.28;;;24.70;96.10;;;;;;5057497;28;20024;-90
2021/07/30 10:01:19;;;;;;;3.03;2.72;;;24.80;96.20;;;;;;5057681;28;20054;-91
2021/07/30 10:03:46;;;;;;;4.47;3.35;;;24.80;96.20;;;;;;5056717;28;20028;-90
2021/07/30 10:06:15;;;;;;;4.85;3.70;;;24.90;96.30;;;;;;5056280;28;20118;-90
2021/07/30 10:08:47;;;;;;;4.85;3.50;;;24.90;96.30;;;;;;5058312;28;20120;-90
2021/07/30 10:11:37;;;;;;;4.90;3.47;;;25.00;96.30;;;;;;5055680;28;20089;-91
2021/07/30 10:14:10;;;;;;;4.50;3.55;;;25.00;96.30;;;;;;5056497;28;20051;-89
2021/07/30 10:17:03;;;;;;;4.87;3.30;;;25.00;96.30;;;;;;5055975;28;20073;-91
2021/07/30 10:19:33;;;;;;;3.97;2.90;;;25.00;96.20;;;;;;5056559;28;20037;-90
2021/07/30 10:22:08;;;;;;;3.28;2.60;;;25.10;96.30;;;;;;5042280;28;20092;-91
2021/07/30 10:25:30;;;;;;;2.65;2.42;;;25.10;96.60;;;;;;5075977;28;20021;-91
2021/07/30 10:28:17;;;;;;;2.83;2.53;;;25.10;96.40;;;;;;5070594;28;20542;-88
2021/07/30 10:30:58;;;;;;;2.53;2.33;;;25.10;96.90;;;;;;5059107;28;20020;-91
2021/07/30 10:34:02;;;;;;;;;;;;;;;;;;;;;
2021/07/30 10:37:25;;;;;;;2.20;2.00;;;25.10;97.20;;;;;;5071075;28;20041;-92
2021/07/30 10:41:12;;;;;;;1.88;1.65;;;25.00;97.20;;;;;;4984001;28;20072;-91
2021/07/30 10:44:29;;;;;;;;;;;;;;;;;;;;;
2021/07/30 10:47:40;;;;;;;1.90;1.55;;;25.00;97.30;;;;;;4969821;28;20039;-91
2021/07/30 10:51:09;;;;;;;1.67;1.58;;;25.00;97.20;;;;;;4955613;29;20528;-91
2021/07/30 10:53:40;;;;;;;1.77;1.50;;;24.90;97.10;;;;;;4958938;29;20043;-91
2021/07/30 10:56:35;;;;;;;1.60;1.50;;;24.90;96.90;;;;;;4955972;29;20040;-91
2021/07/30 11:00:09;;;;;;;;;;;;;;;;;;;;;
2021/07/30 11:03:07;;;;;;;1.25;1.15;;;24.90;96.70;;;;;;4886902;29;20079;-90
2021/07/30 11:06:28;;;;;;;1.30;1.20;;;24.90;96.70;;;;;;4870449;29;20130;-91
2021/07/30 11:09:13;;;;;;;;;;;;;;;;;;;;;
2021/07/30 11:14:58;;;;;;;;;;;;;;;;;;;;;
2021/07/30 11:18:01;;;;;;;;;;;;;;;;;;;;;
2021/07/30 11:24:15;;;;;;;1.10;1.00;;;24.80;96.50;;;;;;4942816;29;20050;-91
2021/07/30 11:27:15;;;;;;;1.50;1.40;;;24.80;96.60;;;;;;4904699;29;20058;-91
2021/07/30 11:30:04;;;;;;;1.73;1.38;;;24.80;96.50;;;;;;4980477;28;20049;-91
2021/07/30 11:32:56;;;;;;;1.75;1.60;;;24.80;96.50;;;;;;4975489;28;20161;-91
2021/07/30 11:35:45;;;;;;;1.85;1.65;;;24.80;96.50;;;;;;4979295;28;20442;-91
2021/07/30 11:38:56;;;;;;;2.15;1.77;;;24.80;96.60;;;;;;4956161;28;20154;-91
2021/07/30 11:41:51;;;;;;;1.92;1.67;;;24.80;96.60;;;;;;4964161;28;20117;-91
2021/07/30 11:44:59;;;;;;;;;;;;;;;;;;;;;
2021/07/30 11:47:43;;;;;;;3.10;2.17;;;24.80;96.90;;;;;;4974214;28;20053;-91
2021/07/30 11:50:39;;;;;;;2.42;2.22;;;24.80;96.90;;;;;;4927634;28;20051;-90
2021/07/30 11:53:58;;;;;;;;;;;;;;;;;;;;;
2021/07/30 11:57:25;;;;;;;;;;;;;;;;;;;;;
2021/07/30 12:04:20;;;;;;;;;;;;;;;;;;;;;
2021/07/30 12:07:33;;;;;;;3.42;2.97;;;24.80;97.20;;;;;;5026259;28;20046;-92
2021/07/30 12:10:42;;;;;;;3.42;2.78;;;24.80;97.30;;;;;;4998448;28;20044;-92
2021/07/30 12:17:48;;;;;;;;;;;;;;;;;;;;;
2021/07/30 12:21:30;;;;;;;;;;;;;;;;;;;;;
2021/07/30 12:31:00;;;;;;;3.85;3.20;;;24.80;97.80;;;;;;4914225;29;20493;-92
2021/07/30 12:34:14;;;;;;;;;;;;;;;;;;;;;
2021/07/30 12:37:05;;;;;;;4.13;3.60;;;24.80;97.80;;;;;;5014730;28;20407;-91
2021/07/30 12:39:58;;;;;;;3.90;3.17;;;24.80;97.80;;;;;;5009583;28;20038;-91
2021/07/30 12:42:34;;;;;;;4.15;3.75;;;24.80;97.90;;;;;;4992696;28;20038;-92
2021/07/30 12:46:32;;;;;;;;;;;;;;;;;;;;;
2021/07/30 12:50:10;;;;;;;;;;;;;;;;;;;;;
2021/07/30 12:53:10;;;;;;;5.22;4.18;;;24.80;97.90;;;;;;4915394;29;20047;-93
2021/07/30 12:56:34;;;;;;;;;;;;;;;;;;;;;
2021/07/30 12:59:33;;;;;;;;;;;;;;;;;;;;;
2021/07/30 13:02:46;;;;;;;5.30;4.78;;;24.80;98.20;;;;;;5034384;28;20056;-92
2021/07/30 13:05:22;;;;;;;4.88;4.30;;;24.80;98.30;;;;;;5023609;28;20037;-91
2021/07/30 13:08:06;;;;;;;5.00;4.38;;;24.80;98.40;;;;;;5000492;28;20053;-89
2021/07/30 13:11:04;;;;;;;6.55;5.55;;;24.90;98.50;;;;;;5015616;28;20079;-91
2021/07/30 13:13:30;;;;;;;6.10;4.97;;;24.90;98.60;;;;;;5012659;28;20050;-91
2021/07/30 13:16:02;;;;;;;6.53;5.13;;;24.90;98.70;;;;;;5015384;28;20030;-90
2021/07/30 13:18:55;;;;;;;5.70;5.10;;;24.90;98.80;;;;;;5016823;28;20524;-91
2021/07/30 13:21:46;;;;;;;7.05;4.97;;;24.90;98.80;;;;;;5007020;28;20095;-91
2021/07/30 13:24:19;;;;;;;5.40;4.90;;;24.90;98.90;;;;;;5069916;28;20087;-91
2021/07/30 13:30:46;;;;;;;9.38;7.78;;;24.90;99.00;;;;;;5056762;28;20041;-91
2021/07/30 13:33:12;;;;;;;9.70;7.95;;;24.90;99.30;;;;;;5054115;28;20087;-88
2021/07/30 13:35:38;;;;;;;12.55;9.52;;;25.00;99.50;;;;;;5053299;28;20049;-85
2021/07/30 13:38:06;;;;;;;11.75;9.70;;;25.00;99.60;;;;;;5068641;28;20386;-87
2021/07/30 13:40:33;;;;;;;11.70;9.40;;;25.00;99.60;;;;;;5053891;28;20029;-86
2021/07/30 13:43:06;;;;;;;11.98;9.40;;;25.00;99.70;;;;;;5052386;28;20025;-86
2021/07/30 13:45:39;;;;;;;11.68;9.20;;;25.10;99.80;;;;;;5052422;28;20032;-86
2021/07/30 13:48:06;;;;;;;12.33;9.43;;;25.10;99.80;;;;;;5052911;28;20032;-86
2021/07/30 13:50:32;;;;;;;10.15;8.55;;;25.00;99.80;;;;;;5052563;28;20360;-86
2021/07/30 13:53:00;;;;;;;11.40;9.18;;;25.10;99.90;;;;;;5053128;28;20505;-85
2021/07/30 13:55:33;;;;;;;10.13;8.38;;;25.00;99.90;;;;;;5068234;28;20029;-86
2021/07/30 13:57:59;;;;;;;9.60;8.27;;;25.10;99.90;;;;;;5051644;28;20029;-86
2021/07/30 14:00:25;;;;;;;10.63;8.55;;;25.10;99.90;;;;;;5050932;28;20032;-87
2021/07/30 14:02:51;;;;;;;8.68;7.57;;;25.10;99.90;;;;;;5051530;28;20098;-87
2021/07/30 14:05:17;;;;;;;9.23;7.82;;;25.00;99.90;;;;;;5053344;28;20061;-87
2021/07/30 14:07:47;;;;;;;8.43;7.53;;;25.10;99.90;;;;;;5053642;28;20029;-86
2021/07/30 14:10:15;;;;;;;9.00;7.80;;;25.10;99.90;;;;;;5072996;28;20131;-86
2021/07/30 14:12:47;;;;;;;8.70;7.07;;;25.10;99.90;;;;;;5055634;28;20146;-85
2021/07/30 14:15:16;;;;;;;7.85;7.05;;;25.10;99.90;;;;;;5056411;28;20029;-86
2021/07/30 14:17:42;;;;;;;8.35;7.10;;;25.00;99.90;;;;;;5072519;28;20466;-86
2021/07/30 14:20:12;;;;;;;7.75;6.50;;;25.00;99.90;;;;;;5058062;28;20203;-86
2021/07/30 14:22:38;;;;;;;7.85;6.72;;;25.00;99.90;;;;;;5072630;28;20025;-87
2021/07/30 14:25:08;;;;;;;7.20;6.47;;;25.00;99.90;;;;;;5058203;28;20055;-86
2021/07/30 14:27:34;;;;;;;7.13;6.05;;;25.00;99.90;;;;;;5057254;28;20021;-87
2021/07/30 14:30:00;;;;;;;6.60;5.70;;;25.00;99.90;;;;;;5056867;28;20025;-87
2021/07/30 14:32:26;;;;;;;6.20;5.60;;;25.10;99.90;;;;;;5056579;28;20036;-87
2021/07/30 14:34:51;;;;;;;5.82;5.28;;;25.10;99.90;;;;;;5059142;28;20465;-87
2021/07/30 14:37:20;;;;;;;5.13;4.63;;;25.10;99.90;;;;;;5056802;28;20071;-86
2021/07/30 14:39:50;;;;;;;5.35;4.63;;;25.10;99.90;;;;;;5055473;28;20032;-87
2021/07/30 14:42:16;;;;;;;4.70;4.05;;;25.10;99.90;;;;;;5057769;28;20091;-87
2021/07/30 14:44:42;;;;;;;4.85;4.20;;;25.10;99.90;;;;;;5055705;28;20028;-86
2021/07/30 14:47:10;;;;;;;5.55;4.70;;;25.10;99.90;;;;;;5056865;28;20033;-89
2021/07/30 14:49:40;;;;;;;4.50;4.10;;;25.10;99.90;;;;;;5055242;28;20021;-88
2021/07/30 14:52:10;;;;;;;5.22;4.18;;;25.10;99.90;;;;;;5056826;28;20228;-86
2021/07/30 14:54:36;;;;;;;4.30;3.33;;;25.10;99.90;;;;;;5055574;28;20060;-87
2021/07/30 14:57:06;;;;;;;3.38;2.88;;;25.10;99.90;;;;;;5054114;28;20059;-87
2021/07/30 14:59:32;;;;;;;3.50;2.85;;;25.10;99.60;;;;;;5054248;28;20025;-86
2021/07/30 15:01:58;;;;;;;4.38;2.90;;;25.10;99.40;;;;;;5055605;28;20033;-87
2021/07/30 15:04:24;;;;;;;3.05;2.25;;;25.00;99.20;;;;;;5055766;28;20056;-86
2021/07/30 15:06:49;;;;;;;3.38;2.10;;;25.00;99.00;;;;;;5055808;28;20025;-85
2021/07/30 15:09:15;;;;;;;4.13;2.08;;;25.00;98.90;;;;;;5054720;28;20165;-86
2021/07/30 15:11:45;;;;;;;4.13;2.05;;;25.00;98.80;;;;;;5055377;28;20493;-87
2021/07/30 15:14:12;;;;;;;5.30;1.95;;;25.00;98.70;;;;;;5070427;28;20037;-85
2021/07/30 15:16:45;;;;;;;3.33;1.83;;;25.00;98.60;;;;;;5054050;28;20475;-85
2021/07/30 15:19:12;;;;;;;2.92;1.70;;;25.00;98.50;;;;;;5053524;28;20083;-84
2021/07/30 15:21:38;;;;;;;3.65;1.73;;;25.00;98.50;;;;;;5069682;28;20028;-85
2021/07/30 15:24:05;;;;;;;3.42;1.50;;;25.00;98.50;;;;;;5053327;28;20021;-85
2021/07/30 15:26:33;;;;;;;4.55;1.85;;;25.00;98.50;;;;;;5053263;28;20039;-85
2021/07/30 15:29:04;;;;;;;6.10;2.25;;;25.00;98.50;;;;;;5055050;28;20040;-85
2021/07/30 15:31:30;;;;;;;2.38;1.50;;;25.00;98.50;;;;;;5054412;28;20055;-85
2021/07/30 15:33:57;;;;;;;2.70;1.73;;;25.00;98.50;;;;;;5057899;28;20036;-85
2021/07/30 15:36:31;;;;;;;4.25;1.95;;;25.00;98.60;;;;;;5066411;28;20048;-86
2021/07/30 15:38:57;;;;;;;2.05;1.67;;;25.00;98.60;;;;;;5075097;28;20055;-85
2021/07/30 15:41:24;;;;;;;2.80;1.55;;;25.00;98.60;;;;;;5063592;28;20033;-85
2021/07/30 15:43:50;;;;;;;2.58;1.45;;;25.00;98.60;;;;;;5078514;28;20051;-85
2021/07/30 15:46:16;;;;;;;2.85;1.30;;;25.00;98.60;;;;;;5074082;28;20071;-85
2021/07/30 15:48:42;;;;;;;3.33;1.50;;;25.00;98.60;;;;;;5057808;28;20024;-85
2021/07/30 15:51:09;;;;;;;2.75;1.60;;;25.00;98.70;;;;;;5057658;28;20028;-85
2021/07/30 15:53:35;;;;;;;1.40;1.02;;;25.00;98.70;;;;;;5058407;28;20036;-84
2021/07/30 15:56:05;;;;;;;1.83;1.40;;;25.00;98.70;;;;;;5072957;28;20032;-87
2021/07/30 15:58:33;;;;;;;2.40;1.38;;;25.00;98.80;;;;;;5056040;28;20028;-85
2021/07/30 16:01:02;;;;;;;1.35;1.00;;;25.00;98.80;;;;;;5058438;28;20024;-84
2021/07/30 16:03:29;;;;;;;2.05;1.10;;;25.00;98.90;;;;;;5078732;28;20028;-86
2021/07/30 16:05:56;;;;;;;1.65;1.08;;;25.00;98.90;;;;;;5075443;28;20048;-86
2021/07/30 16:08:22;;;;;;;1.55;1.23;;;25.00;99.00;;;;;;5056472;28;20111;-85
2021/07/30 16:10:50;;;;;;;2.45;1.20;;;25.00;99.00;;;;;;5055633;28;20128;-85
2021/07/30 16:13:19;;;;;;;1.48;1.15;;;25.00;99.00;;;;;;5061046;28;20445;-85
2021/07/30 16:15:45;;;;;;;1.60;1.20;;;25.00;99.10;;;;;;5075758;28;20021;-86
2021/07/30 16:18:10;;;;;;;1.13;1.00;;;25.00;99.10;;;;;;5057122;28;20028;-86
2021/07/30 16:20:36;;;;;;;1.15;1.05;;;25.00;99.00;;;;;;5057088;28;20362;-85
2021/07/30 16:23:02;;;;;;;2.50;1.40;;;25.00;99.00;;;;;;5038892;28;20540;-86
2021/07/30 16:25:28;;;;;;;1.13;1.00;;;25.00;99.00;;;;;;5055534;28;20075;-86
2021/07/30 16:27:53;;;;;;;2.28;1.02;;;25.00;99.00;;;;;;5055458;28;20127;-86
2021/07/30 16:30:19;;;;;;;1.55;1.13;;;25.00;99.00;;;;;;5055703;28;20062;-85
2021/07/30 16:32:45;;;;;;;1.52;1.30;;;24.90;98.90;;;;;;5059245;28;20495;-86
2021/07/30 16:35:11;;;;;;;1.77;1.15;;;25.00;98.80;;;;;;5055146;28;20462;-86
2021/07/30 16:37:39;;;;;;;1.80;1.20;;;24.90;98.70;;;;;;5055488;28;20076;-86
2021/07/30 16:40:05;;;;;;;1.33;1.00;;;24.90;98.60;;;;;;5055237;28;20037;-87
2021/07/30 16:42:31;;;;;;;2.40;1.10;;;24.90;98.50;;;;;;5073597;28;20055;-86
2021/07/30 16:44:56;;;;;;;1.88;1.35;;;24.90;98.40;;;;;;5038557;28;20482;-85
2021/07/30 16:47:22;;;;;;;1.50;1.17;;;24.90;98.30;;;;;;5055108;28;20496;-87
2021/07/30 16:49:47;;;;;;;1.15;1.00;;;24.90;98.20;;;;;;5058733;28;20036;-85
2021/07/30 16:52:13;;;;;;;3.25;1.00;;;24.90;98.20;;;;;;5055010;28;20037;-85
2021/07/30 16:54:39;;;;;;;1.95;0.90;;;24.90;98.10;;;;;;5037829;28;20033;-85
2021/07/30 16:57:05;;;;;;;1.73;1.20;;;24.90;98.00;;;;;;5055153;28;20064;-86
2021/07/30 16:59:31;;;;;;;2.25;1.17;;;24.90;97.90;;;;;;5038266;28;20474;-86
2021/07/30 17:01:58;;;;;;;1.67;1.10;;;24.90;97.80;;;;;;5038161;28;20064;-86
2021/07/30 17:04:24;;;;;;;1.20;0.80;;;24.90;97.80;;;;;;5055092;28;20032;-86
2021/07/30 17:06:51;;;;;;;0.95;0.88;;;24.90;97.70;;;;;;5042208;28;20024;-85
2021/07/30 17:09:18;;;;;;;1.00;0.90;;;24.90;97.70;;;;;;5055654;28;20055;-86
2021/07/30 17:11:44;;;;;;;1.23;1.10;;;24.80;97.60;;;;;;5072362;28;20600;-87
2021/07/30 17:14:10;;;;;;;1.58;1.05;;;24.90;97.60;;;;;;5037800;28;20060;-86
2021/07/30 17:16:35;;;;;;;0.95;0.80;;;24.80;97.50;;;;;;5037718;28;20032;-86
2021/07/30 17:19:02;;;;;;;1.63;1.00;;;24.90;97.50;;;;;;5055121;28;20169;-86
2021/07/30 17:21:27;;;;;;;1.33;1.08;;;24.90;97.40;;;;;;5054837;28;20154;-87
2021/07/30 17:23:53;;;;;;;0.95;0.80;;;24.80;97.30;;;;;;5038675;28;20056;-87
2021/07/30 17:26:19;;;;;;;1.35;0.95;;;24.80;97.30;;;;;;5059139;28;20036;-86
2021/07/30 17:28:45;;;;;;;0.88;0.70;;;24.80;97.20;;;;;;5055636;28;20052;-86
2021/07/30 17:31:11;;;;;;;1.92;0.90;;;24.80;97.20;;;;;;5074848;28;20025;-88
2021/07/30 17:33:37;;;;;;;0.98;0.80;;;24.80;97.10;;;;;;5040147;28;20098;-88
2021/07/30 17:36:02;;;;;;;0.95;0.95;;;24.80;97.10;;;;;;5054411;28;20088;-87
2021/07/30 17:38:28;;;;;;;1.13;0.93;;;24.80;97.00;;;;;;5037904;28;20039;-86
2021/07/30 17:40:54;;;;;;;2.15;1.17;;;24.80;97.00;;;;;;5038034;28;20040;-86